SHU101 UWKD-URWW
Flight info
| Callsign | SHU101 |
|---|---|
| Flight time | 1h 12m |
| Altitude | 38000 |
| Route | UWKD/11 SONUM T789 DAFOS P135 UROBO R807 RODUN RODUN1J |
| Aircraft | CRJ9/M-SDFGIRWY/S |
Departure
| Time | 2026-05-07 16:55 |
|---|---|
| Airport | Kazan International Airport (UWKD) |
Arrival
| Time | 2026-05-07 18:07 |
|---|---|
| Airport | Volgograd International Airport (URWW) |
| Time | Latitude | Longitude | Altitude | Speed | Heading |
|---|---|---|---|---|---|
| 2026-05-07 16:50 | 55.60728 | 49.28262 | 407 ft | 0 kts | 305° |
| 2026-05-07 16:50 | 55.60745 | 49.28220 | 407 ft | 8 kts | 305° |
| 2026-05-07 16:50 | 55.60780 | 49.28132 | 404 ft | 9 kts | 303° |
| 2026-05-07 16:50 | 55.60818 | 49.28029 | 406 ft | 11 kts | 304° |
| 2026-05-07 16:51 | 55.60886 | 49.27854 | 404 ft | 20 kts | 305° |
| 2026-05-07 16:51 | 55.60970 | 49.27640 | 399 ft | 21 kts | 304° |
| 2026-05-07 16:51 | 55.61030 | 49.27487 | 395 ft | 13 kts | 304° |
| 2026-05-07 16:51 | 55.61086 | 49.27344 | 391 ft | 15 kts | 304° |
| 2026-05-07 16:52 | 55.61143 | 49.27196 | 393 ft | 9 kts | 304° |
| 2026-05-07 16:52 | 55.61184 | 49.27091 | 392 ft | 11 kts | 304° |
| 2026-05-07 16:52 | 55.61225 | 49.26970 | 392 ft | 11 kts | 274° |
| 2026-05-07 16:52 | 55.61176 | 49.26875 | 391 ft | 12 kts | 215° |
| 2026-05-07 16:53 | 55.61171 | 49.26868 | 391 ft | 0 kts | 215° |
| 2026-05-07 16:53 | 55.61167 | 49.26863 | 391 ft | 2 kts | 215° |
| 2026-05-07 16:53 | 55.61124 | 49.26810 | 390 ft | 14 kts | 215° |
| 2026-05-07 16:53 | 55.61071 | 49.26757 | 390 ft | 3 kts | 172° |
| 2026-05-07 16:54 | 55.61028 | 49.26837 | 390 ft | 30 kts | 124° |
| 2026-05-07 16:54 | 55.60749 | 49.27553 | 403 ft | 110 kts | 124° |
| 2026-05-07 16:54 | 55.60192 | 49.29006 | 420 ft | 171 kts | 123° |
| 2026-05-07 16:54 | 55.59471 | 49.30878 | 1009 ft | 188 kts | 123° |
| 2026-05-07 16:55 | 55.58703 | 49.32708 | 2101 ft | 184 kts | 130° |
| 2026-05-07 16:55 | 55.57681 | 49.34042 | 3079 ft | 185 kts | 154° |
| 2026-05-07 16:55 | 55.56377 | 49.34584 | 3689 ft | 208 kts | 176° |
| 2026-05-07 16:55 | 55.54723 | 49.34298 | 3504 ft | 274 kts | 192° |
| 2026-05-07 16:56 | 55.52802 | 49.33298 | 3865 ft | 282 kts | 197° |
| 2026-05-07 16:56 | 55.50958 | 49.32244 | 4172 ft | 284 kts | 199° |
| 2026-05-07 16:56 | 55.47252 | 49.29855 | 5671 ft | 285 kts | 201° |
| 2026-05-07 16:57 | 55.45386 | 49.28630 | 6341 ft | 288 kts | 201° |
| 2026-05-07 16:57 | 55.43505 | 49.27385 | 6972 ft | 289 kts | 203° |
| 2026-05-07 16:57 | 55.41660 | 49.25949 | 7630 ft | 291 kts | 206° |
| 2026-05-07 16:57 | 55.39825 | 49.24418 | 8292 ft | 292 kts | 206° |
| 2026-05-07 16:58 | 55.38009 | 49.22884 | 8951 ft | 294 kts | 207° |
| 2026-05-07 16:58 | 55.36139 | 49.21284 | 9616 ft | 296 kts | 207° |
| 2026-05-07 16:58 | 55.34309 | 49.19694 | 10183 ft | 301 kts | 207° |
| 2026-05-07 16:58 | 55.32345 | 49.17942 | 10284 ft | 322 kts | 208° |
| 2026-05-07 16:59 | 55.30293 | 49.16118 | 10484 ft | 339 kts | 207° |
| 2026-05-07 16:59 | 55.28138 | 49.14295 | 10890 ft | 346 kts | 206° |
| 2026-05-07 16:59 | 55.25980 | 49.12514 | 11590 ft | 348 kts | 206° |
| 2026-05-07 16:59 | 55.23775 | 49.10704 | 12402 ft | 352 kts | 206° |
| 2026-05-07 17:00 | 55.21546 | 49.08862 | 13200 ft | 356 kts | 206° |
| 2026-05-07 17:00 | 55.19290 | 49.07010 | 13969 ft | 360 kts | 206° |
| 2026-05-07 17:00 | 55.17015 | 49.05136 | 14679 ft | 363 kts | 206° |
| 2026-05-07 17:00 | 55.14720 | 49.03250 | 15388 ft | 366 kts | 206° |
| 2026-05-07 17:01 | 55.12405 | 49.01357 | 16086 ft | 369 kts | 206° |
| 2026-05-07 17:01 | 55.10069 | 48.99447 | 16763 ft | 372 kts | 206° |
| 2026-05-07 17:01 | 55.07718 | 48.97520 | 17432 ft | 375 kts | 206° |
| 2026-05-07 17:01 | 55.05342 | 48.95579 | 18089 ft | 378 kts | 206° |
| 2026-05-07 17:02 | 55.02949 | 48.93634 | 18654 ft | 381 kts | 206° |
| 2026-05-07 17:02 | 55.00534 | 48.91665 | 19189 ft | 385 kts | 206° |
| 2026-05-07 17:02 | 54.98091 | 48.89677 | 19600 ft | 392 kts | 206° |
| 2026-05-07 17:02 | 54.95588 | 48.87644 | 19798 ft | 402 kts | 206° |
| 2026-05-07 17:03 | 54.93040 | 48.85581 | 19896 ft | 406 kts | 206° |
| 2026-05-07 17:03 | 54.90462 | 48.83493 | 19938 ft | 412 kts | 206° |
| 2026-05-07 17:03 | 54.87845 | 48.81369 | 19959 ft | 417 kts | 206° |
| 2026-05-07 17:03 | 54.85197 | 48.79228 | 19968 ft | 423 kts | 206° |
| 2026-05-07 17:04 | 54.82517 | 48.77041 | 19975 ft | 428 kts | 207° |
| 2026-05-07 17:04 | 54.79861 | 48.74637 | 19977 ft | 433 kts | 210° |
| 2026-05-07 17:04 | 54.78122 | 48.72909 | 19979 ft | 438 kts | 211° |
| 2026-05-07 17:04 | 54.74561 | 48.69274 | 20320 ft | 447 kts | 211° |
| 2026-05-07 17:05 | 54.72782 | 48.67461 | 20576 ft | 450 kts | 211° |
| 2026-05-07 17:05 | 54.70057 | 48.64763 | 20964 ft | 453 kts | 210° |
| 2026-05-07 17:05 | 54.67307 | 48.62070 | 21354 ft | 456 kts | 210° |
| 2026-05-07 17:05 | 54.64538 | 48.59374 | 21746 ft | 458 kts | 210° |
| 2026-05-07 17:06 | 54.61757 | 48.56664 | 22138 ft | 460 kts | 210° |
| 2026-05-07 17:06 | 54.58970 | 48.53948 | 22530 ft | 461 kts | 210° |
| 2026-05-07 17:06 | 54.55262 | 48.50347 | 23081 ft | 462 kts | 210° |
| 2026-05-07 17:06 | 54.53371 | 48.48513 | 23367 ft | 462 kts | 210° |
| 2026-05-07 17:07 | 54.50568 | 48.45802 | 23793 ft | 462 kts | 210° |
| 2026-05-07 17:07 | 54.47770 | 48.43093 | 24181 ft | 461 kts | 210° |
| 2026-05-07 17:07 | 54.45016 | 48.40435 | 24572 ft | 460 kts | 210° |
| 2026-05-07 17:07 | 54.42235 | 48.37758 | 24973 ft | 458 kts | 210° |
| 2026-05-07 17:08 | 54.39455 | 48.35076 | 25379 ft | 457 kts | 210° |
| 2026-05-07 17:08 | 54.36681 | 48.32412 | 25798 ft | 455 kts | 210° |
| 2026-05-07 17:08 | 54.33923 | 48.29770 | 26209 ft | 453 kts | 210° |
| 2026-05-07 17:08 | 54.31178 | 48.27134 | 26634 ft | 451 kts | 210° |
| 2026-05-07 17:09 | 54.28443 | 48.24513 | 27065 ft | 449 kts | 210° |
| 2026-05-07 17:09 | 54.25713 | 48.21953 | 27499 ft | 446 kts | 207° |
| 2026-05-07 17:09 | 54.22908 | 48.19714 | 27943 ft | 444 kts | 203° |
| 2026-05-07 17:09 | 54.20067 | 48.17676 | 28337 ft | 442 kts | 203° |
| 2026-05-07 17:10 | 54.17231 | 48.15648 | 28743 ft | 441 kts | 203° |
| 2026-05-07 17:10 | 54.14426 | 48.13556 | 29152 ft | 439 kts | 204° |
| 2026-05-07 17:10 | 54.11645 | 48.11439 | 29578 ft | 437 kts | 204° |
| 2026-05-07 17:10 | 54.08879 | 48.09340 | 29993 ft | 434 kts | 204° |
| 2026-05-07 17:11 | 54.06128 | 48.07248 | 30350 ft | 431 kts | 204° |
| 2026-05-07 17:11 | 54.03399 | 48.05178 | 30716 ft | 428 kts | 204° |
| 2026-05-07 17:11 | 54.00690 | 48.03131 | 31089 ft | 425 kts | 204° |
| 2026-05-07 17:11 | 53.97998 | 48.01093 | 31459 ft | 421 kts | 204° |
| 2026-05-07 17:12 | 53.95368 | 47.99110 | 31826 ft | 417 kts | 204° |
| 2026-05-07 17:12 | 53.92723 | 47.97122 | 32204 ft | 413 kts | 204° |
| 2026-05-07 17:12 | 53.90105 | 47.95153 | 32590 ft | 409 kts | 204° |
| 2026-05-07 17:12 | 53.87516 | 47.93202 | 32981 ft | 405 kts | 204° |
| 2026-05-07 17:13 | 53.84960 | 47.91274 | 33370 ft | 400 kts | 204° |
| 2026-05-07 17:13 | 53.82390 | 47.89523 | 33768 ft | 395 kts | 199° |
| 2026-05-07 17:13 | 53.79783 | 47.88167 | 34133 ft | 390 kts | 194° |
| 2026-05-07 17:13 | 53.77149 | 47.87142 | 34478 ft | 385 kts | 192° |
| 2026-05-07 17:14 | 53.74548 | 47.86228 | 34834 ft | 379 kts | 192° |
| 2026-05-07 17:14 | 53.71973 | 47.85260 | 35009 ft | 379 kts | 194° |
| 2026-05-07 17:14 | 53.69435 | 47.84073 | 35188 ft | 378 kts | 199° |
| 2026-05-07 17:14 | 53.66965 | 47.82562 | 35379 ft | 377 kts | 203° |
| 2026-05-07 17:15 | 53.64559 | 47.80813 | 35564 ft | 376 kts | 204° |
| 2026-05-07 17:15 | 53.62162 | 47.79066 | 35756 ft | 375 kts | 203° |
| 2026-05-07 17:15 | 53.59746 | 47.77454 | 35951 ft | 373 kts | 201° |
| 2026-05-07 17:15 | 53.57321 | 47.75904 | 36147 ft | 372 kts | 201° |
| 2026-05-07 17:16 | 53.54910 | 47.74356 | 36346 ft | 370 kts | 201° |
| 2026-05-07 17:16 | 53.52511 | 47.72801 | 36548 ft | 368 kts | 202° |
| 2026-05-07 17:16 | 53.50134 | 47.71229 | 36748 ft | 366 kts | 202° |
| 2026-05-07 17:16 | 53.47770 | 47.69626 | 36870 ft | 366 kts | 205° |
| 2026-05-07 17:17 | 53.43258 | 47.65641 | 37085 ft | 367 kts | 211° |
| 2026-05-07 17:17 | 53.38806 | 47.61417 | 37281 ft | 368 kts | 209° |
| 2026-05-07 17:18 | 53.36535 | 47.59420 | 37389 ft | 368 kts | 209° |
| 2026-05-07 17:18 | 53.34267 | 47.57423 | 37493 ft | 369 kts | 209° |
| 2026-05-07 17:18 | 53.31995 | 47.55413 | 37594 ft | 369 kts | 208° |
| 2026-05-07 17:18 | 53.29730 | 47.53400 | 37712 ft | 369 kts | 209° |
| 2026-05-07 17:19 | 53.27469 | 47.51370 | 37824 ft | 369 kts | 209° |
| 2026-05-07 17:19 | 53.25203 | 47.49342 | 37901 ft | 370 kts | 209° |
| 2026-05-07 17:19 | 53.20669 | 47.45292 | 37951 ft | 375 kts | 209° |
| 2026-05-07 17:20 | 53.16040 | 47.41166 | 37965 ft | 380 kts | 209° |
| 2026-05-07 17:20 | 53.11334 | 47.36973 | 37967 ft | 386 kts | 209° |
| 2026-05-07 17:21 | 53.06550 | 47.32734 | 37967 ft | 393 kts | 209° |
| 2026-05-07 17:21 | 53.01690 | 47.28429 | 37968 ft | 399 kts | 209° |
| 2026-05-07 17:22 | 52.96748 | 47.24065 | 37964 ft | 406 kts | 209° |
| 2026-05-07 17:22 | 52.91719 | 47.19638 | 37958 ft | 412 kts | 209° |
| 2026-05-07 17:23 | 52.86613 | 47.15156 | 37957 ft | 418 kts | 208° |
| 2026-05-07 17:23 | 52.81429 | 47.10618 | 37955 ft | 425 kts | 208° |
| 2026-05-07 17:24 | 52.76188 | 47.06030 | 37950 ft | 427 kts | 208° |
| 2026-05-07 17:24 | 52.70935 | 47.01464 | 37945 ft | 427 kts | 208° |
| 2026-05-07 17:25 | 52.65670 | 46.96896 | 37940 ft | 427 kts | 208° |
| 2026-05-07 17:25 | 52.60406 | 46.92335 | 37941 ft | 428 kts | 208° |
| 2026-05-07 17:26 | 52.55135 | 46.87787 | 37940 ft | 428 kts | 208° |
| 2026-05-07 17:26 | 52.49859 | 46.83240 | 37941 ft | 428 kts | 208° |
| 2026-05-07 17:27 | 52.44574 | 46.78701 | 37938 ft | 429 kts | 208° |
| 2026-05-07 17:27 | 52.39283 | 46.74168 | 37936 ft | 429 kts | 208° |
| 2026-05-07 17:28 | 52.33985 | 46.69643 | 37936 ft | 430 kts | 208° |
| 2026-05-07 17:28 | 52.28681 | 46.65125 | 37935 ft | 430 kts | 208° |
| 2026-05-07 17:29 | 52.23365 | 46.60609 | 37929 ft | 431 kts | 208° |
| 2026-05-07 17:29 | 52.18043 | 46.56102 | 37927 ft | 431 kts | 208° |
| 2026-05-07 17:30 | 52.12721 | 46.51591 | 37933 ft | 431 kts | 208° |
| 2026-05-07 17:30 | 52.07420 | 46.47134 | 37934 ft | 432 kts | 208° |
| 2026-05-07 17:31 | 52.02076 | 46.42648 | 37928 ft | 432 kts | 208° |
| 2026-05-07 17:31 | 51.96733 | 46.38162 | 37932 ft | 433 kts | 208° |
| 2026-05-07 17:32 | 51.91376 | 46.33692 | 37935 ft | 433 kts | 208° |
| 2026-05-07 17:32 | 51.86013 | 46.29227 | 37938 ft | 434 kts | 208° |
| 2026-05-07 17:33 | 51.80644 | 46.24768 | 37935 ft | 434 kts | 208° |
| 2026-05-07 17:33 | 51.75271 | 46.20298 | 37935 ft | 435 kts | 208° |
| 2026-05-07 17:34 | 51.69884 | 46.15854 | 37934 ft | 435 kts | 208° |
| 2026-05-07 17:34 | 51.64496 | 46.11415 | 37937 ft | 435 kts | 207° |
| 2026-05-07 17:35 | 51.59103 | 46.06975 | 37934 ft | 436 kts | 207° |
| 2026-05-07 17:35 | 51.53692 | 46.02571 | 37932 ft | 436 kts | 207° |
| 2026-05-07 17:36 | 51.48204 | 45.98411 | 37931 ft | 436 kts | 206° |
| 2026-05-07 17:36 | 51.42704 | 45.94270 | 37930 ft | 437 kts | 206° |
| 2026-05-07 17:37 | 51.37217 | 45.90075 | 37930 ft | 437 kts | 206° |
| 2026-05-07 17:37 | 51.31714 | 45.85914 | 37931 ft | 438 kts | 206° |
| 2026-05-07 17:38 | 51.26206 | 45.81755 | 37934 ft | 438 kts | 206° |
| 2026-05-07 17:38 | 51.20692 | 45.77596 | 37931 ft | 438 kts | 206° |
| 2026-05-07 17:39 | 51.15169 | 45.73448 | 37935 ft | 439 kts | 206° |
| 2026-05-07 17:39 | 51.09641 | 45.69304 | 37938 ft | 439 kts | 206° |
| 2026-05-07 17:40 | 51.04117 | 45.65285 | 37932 ft | 440 kts | 201° |
| 2026-05-07 17:40 | 50.98254 | 45.62493 | 37928 ft | 441 kts | 192° |
| 2026-05-07 17:41 | 50.92241 | 45.60592 | 37945 ft | 441 kts | 193° |
| 2026-05-07 17:41 | 50.86259 | 45.58371 | 37941 ft | 442 kts | 194° |
| 2026-05-07 17:42 | 50.80270 | 45.56180 | 37943 ft | 442 kts | 193° |
| 2026-05-07 17:42 | 50.74256 | 45.54067 | 37942 ft | 443 kts | 193° |
| 2026-05-07 17:43 | 50.68226 | 45.52012 | 37941 ft | 444 kts | 193° |
| 2026-05-07 17:43 | 50.62194 | 45.49916 | 37941 ft | 444 kts | 193° |
| 2026-05-07 17:44 | 50.56173 | 45.47815 | 37639 ft | 439 kts | 193° |
| 2026-05-07 17:44 | 50.53185 | 45.46780 | 36825 ft | 440 kts | 193° |
| 2026-05-07 17:44 | 50.50199 | 45.45747 | 36055 ft | 439 kts | 192° |
| 2026-05-07 17:45 | 50.47218 | 45.44719 | 35316 ft | 438 kts | 192° |
| 2026-05-07 17:45 | 50.44248 | 45.43696 | 34831 ft | 431 kts | 192° |
| 2026-05-07 17:45 | 50.41315 | 45.42686 | 34595 ft | 436 kts | 192° |
| 2026-05-07 17:45 | 50.38320 | 45.41656 | 34274 ft | 445 kts | 192° |
| 2026-05-07 17:46 | 50.35287 | 45.40616 | 34112 ft | 444 kts | 192° |
| 2026-05-07 17:46 | 50.32300 | 45.39593 | 34024 ft | 435 kts | 192° |
| 2026-05-07 17:46 | 50.26429 | 45.37583 | 33953 ft | 431 kts | 192° |
| 2026-05-07 17:47 | 50.20569 | 45.35582 | 33942 ft | 431 kts | 192° |
| 2026-05-07 17:47 | 50.14720 | 45.33587 | 33938 ft | 430 kts | 192° |
| 2026-05-07 17:48 | 50.08886 | 45.31602 | 33938 ft | 429 kts | 192° |
| 2026-05-07 17:48 | 50.03038 | 45.29623 | 33281 ft | 429 kts | 192° |
| 2026-05-07 17:49 | 50.00145 | 45.28564 | 32742 ft | 425 kts | 194° |
| 2026-05-07 17:49 | 49.97303 | 45.27343 | 32218 ft | 422 kts | 196° |
| 2026-05-07 17:49 | 49.94499 | 45.26048 | 31701 ft | 419 kts | 196° |
| 2026-05-07 17:49 | 49.91726 | 45.24769 | 31410 ft | 410 kts | 196° |
| 2026-05-07 17:50 | 49.89915 | 45.23934 | 31060 ft | 409 kts | 196° |
| 2026-05-07 17:50 | 49.86274 | 45.22297 | 30390 ft | 407 kts | 195° |
| 2026-05-07 17:50 | 49.83554 | 45.21100 | 29886 ft | 405 kts | 195° |
| 2026-05-07 17:50 | 49.81764 | 45.20314 | 29520 ft | 404 kts | 195° |
| 2026-05-07 17:51 | 49.79065 | 45.19129 | 28949 ft | 402 kts | 195° |
| 2026-05-07 17:51 | 49.76380 | 45.17952 | 28408 ft | 401 kts | 195° |
| 2026-05-07 17:51 | 49.73701 | 45.16783 | 27868 ft | 399 kts | 195° |
| 2026-05-07 17:51 | 49.71031 | 45.15614 | 27346 ft | 398 kts | 195° |
| 2026-05-07 17:52 | 49.68371 | 45.14446 | 26638 ft | 398 kts | 195° |
| 2026-05-07 17:52 | 49.65708 | 45.13234 | 25893 ft | 400 kts | 197° |
| 2026-05-07 17:52 | 49.63075 | 45.11801 | 25156 ft | 402 kts | 200° |
| 2026-05-07 17:52 | 49.60468 | 45.10223 | 24439 ft | 403 kts | 201° |
| 2026-05-07 17:53 | 49.57889 | 45.08649 | 23723 ft | 395 kts | 201° |
| 2026-05-07 17:53 | 49.55355 | 45.07113 | 22926 ft | 389 kts | 201° |
| 2026-05-07 17:53 | 49.53037 | 45.05758 | 22161 ft | 383 kts | 201° |
| 2026-05-07 17:53 | 49.50556 | 45.04321 | 21380 ft | 378 kts | 200° |
| 2026-05-07 17:54 | 49.48105 | 45.02903 | 20613 ft | 374 kts | 200° |
| 2026-05-07 17:54 | 49.45679 | 45.01500 | 19869 ft | 370 kts | 201° |
| 2026-05-07 17:54 | 49.43278 | 45.00119 | 19141 ft | 367 kts | 201° |
| 2026-05-07 17:54 | 49.40933 | 44.98768 | 18532 ft | 363 kts | 201° |
| 2026-05-07 17:55 | 49.38581 | 44.97415 | 18223 ft | 357 kts | 201° |
| 2026-05-07 17:55 | 49.36290 | 44.96096 | 18061 ft | 346 kts | 201° |
| 2026-05-07 17:55 | 49.34073 | 44.94826 | 17985 ft | 334 kts | 201° |
| 2026-05-07 17:55 | 49.31916 | 44.93609 | 17670 ft | 332 kts | 200° |
| 2026-05-07 17:56 | 49.29748 | 44.92386 | 17124 ft | 331 kts | 200° |
| 2026-05-07 17:56 | 49.27591 | 44.91172 | 16456 ft | 332 kts | 200° |
| 2026-05-07 17:56 | 49.25414 | 44.89938 | 15693 ft | 335 kts | 200° |
| 2026-05-07 17:56 | 49.24676 | 44.89519 | 15444 ft | 336 kts | 200° |
| 2026-05-07 17:57 | 49.14026 | 44.83444 | 11831 ft | 335 kts | 200° |
| 2026-05-07 17:58 | 49.11849 | 44.82208 | 11093 ft | 333 kts | 201° |
| 2026-05-07 17:58 | 49.09683 | 44.80977 | 10362 ft | 331 kts | 201° |
| 2026-05-07 17:58 | 49.07533 | 44.79754 | 9623 ft | 328 kts | 201° |
| 2026-05-07 17:58 | 49.05405 | 44.78546 | 8851 ft | 325 kts | 201° |
| 2026-05-07 17:59 | 49.03296 | 44.77349 | 8094 ft | 322 kts | 201° |
| 2026-05-07 17:59 | 49.01207 | 44.76167 | 7348 ft | 318 kts | 201° |
| 2026-05-07 17:59 | 48.99174 | 44.75019 | 6629 ft | 314 kts | 201° |
| 2026-05-07 17:59 | 48.97139 | 44.73869 | 5890 ft | 310 kts | 201° |
| 2026-05-07 18:00 | 48.95135 | 44.72739 | 5147 ft | 305 kts | 201° |
| 2026-05-07 18:00 | 48.93160 | 44.71626 | 4408 ft | 300 kts | 201° |
| 2026-05-07 18:00 | 48.91233 | 44.70539 | 3848 ft | 290 kts | 201° |
| 2026-05-07 18:00 | 48.89488 | 44.69191 | 3329 ft | 276 kts | 224° |
| 2026-05-07 18:01 | 48.88387 | 44.66923 | 2877 ft | 261 kts | 244° |
| 2026-05-07 18:01 | 48.87612 | 44.64525 | 2643 ft | 243 kts | 248° |
| 2026-05-07 18:01 | 48.86979 | 44.62304 | 2599 ft | 210 kts | 250° |
| 2026-05-07 18:01 | 48.86469 | 44.60503 | 2569 ft | 158 kts | 250° |
| 2026-05-07 18:02 | 48.85596 | 44.57500 | 2498 ft | 151 kts | 249° |
| 2026-05-07 18:02 | 48.85152 | 44.56036 | 2490 ft | 156 kts | 248° |
| 2026-05-07 18:02 | 48.84682 | 44.54525 | 2503 ft | 160 kts | 248° |
| 2026-05-07 18:03 | 48.84201 | 44.52993 | 2510 ft | 162 kts | 247° |
| 2026-05-07 18:03 | 48.83700 | 44.51450 | 2506 ft | 163 kts | 246° |
| 2026-05-07 18:03 | 48.83203 | 44.49923 | 2476 ft | 159 kts | 246° |
| 2026-05-07 18:03 | 48.82715 | 44.48432 | 2357 ft | 157 kts | 247° |
| 2026-05-07 18:04 | 48.82245 | 44.46929 | 2162 ft | 153 kts | 248° |
| 2026-05-07 18:04 | 48.81798 | 44.45514 | 1884 ft | 147 kts | 247° |
| 2026-05-07 18:04 | 48.81343 | 44.44065 | 1826 ft | 157 kts | 247° |
| 2026-05-07 18:04 | 48.80864 | 44.42544 | 1585 ft | 162 kts | 247° |
| 2026-05-07 18:05 | 48.80379 | 44.40987 | 1332 ft | 160 kts | 246° |
| 2026-05-07 18:05 | 48.79918 | 44.39488 | 1056 ft | 154 kts | 245° |
| 2026-05-07 18:05 | 48.79472 | 44.38059 | 891 ft | 153 kts | 243° |
| 2026-05-07 18:05 | 48.78978 | 44.36612 | 685 ft | 153 kts | 244° |
| 2026-05-07 18:06 | 48.78569 | 44.35259 | 501 ft | 128 kts | 245° |
| 2026-05-07 18:06 | 48.78230 | 44.34194 | 459 ft | 96 kts | 244° |
| 2026-05-07 18:06 | 48.77954 | 44.33334 | 447 ft | 87 kts | 244° |
| 2026-05-07 18:06 | 48.77742 | 44.32672 | 431 ft | 63 kts | 244° |
| 2026-05-07 18:07 | 48.77562 | 44.32104 | 421 ft | 41 kts | 244° |
| 2026-05-07 18:07 | 48.77513 | 44.31934 | 417 ft | 13 kts | 252° |
| 2026-05-07 18:07 | 48.77532 | 44.31795 | 420 ft | 14 kts | 329° |
| 2026-05-07 18:07 | 48.77617 | 44.31747 | 420 ft | 13 kts | 9° |
| 2026-05-07 18:08 | 48.77665 | 44.31841 | 421 ft | 11 kts | 65° |
| 2026-05-07 18:08 | 48.77697 | 44.31946 | 416 ft | 11 kts | 65° |
| 2026-05-07 18:08 | 48.77727 | 44.32045 | 426 ft | 10 kts | 65° |
| 2026-05-07 18:08 | 48.77756 | 44.32138 | 427 ft | 9 kts | 64° |
| 2026-05-07 18:09 | 48.77783 | 44.32224 | 424 ft | 9 kts | 64° |
| 2026-05-07 18:09 | 48.77812 | 44.32314 | 420 ft | 10 kts | 64° |
| 2026-05-07 18:09 | 48.77858 | 44.32454 | 427 ft | 23 kts | 64° |
| 2026-05-07 18:09 | 48.77924 | 44.32663 | 431 ft | 21 kts | 64° |
| 2026-05-07 18:10 | 48.77985 | 44.32858 | 427 ft | 20 kts | 64° |
| 2026-05-07 18:10 | 48.78043 | 44.33040 | 439 ft | 19 kts | 64° |
| 2026-05-07 18:10 | 48.78097 | 44.33210 | 430 ft | 17 kts | 64° |
| 2026-05-07 18:10 | 48.78147 | 44.33370 | 438 ft | 16 kts | 64° |
| 2026-05-07 18:11 | 48.78194 | 44.33521 | 448 ft | 15 kts | 64° |
| 2026-05-07 18:11 | 48.78224 | 44.33615 | 449 ft | 15 kts | 64° |
| 2026-05-07 18:11 | 48.78281 | 44.33798 | 451 ft | 14 kts | 64° |
| 2026-05-07 18:11 | 48.78323 | 44.33932 | 452 ft | 14 kts | 64° |
| 2026-05-07 18:12 | 48.78364 | 44.34063 | 453 ft | 13 kts | 65° |
| 2026-05-07 18:12 | 48.78388 | 44.34140 | 456 ft | 11 kts | 65° |
| 2026-05-07 18:12 | 48.78446 | 44.34197 | 455 ft | 12 kts | 354° |
| 2026-05-07 18:12 | 48.78537 | 44.34165 | 452 ft | 15 kts | 345° |
| 2026-05-07 18:13 | 48.78640 | 44.34160 | 451 ft | 15 kts | 45° |
| 2026-05-07 18:13 | 48.78681 | 44.34292 | 455 ft | 13 kts | 66° |
| 2026-05-07 18:13 | 48.78711 | 44.34408 | 458 ft | 11 kts | 70° |
| 2026-05-07 18:13 | 48.78735 | 44.34506 | 460 ft | 9 kts | 70° |
| 2026-05-07 18:14 | 48.78754 | 44.34586 | 462 ft | 7 kts | 70° |
| 2026-05-07 18:14 | 48.78771 | 44.34651 | 464 ft | 6 kts | 68° |
| 2026-05-07 18:14 | 48.78789 | 44.34717 | 463 ft | 12 kts | 68° |
| 2026-05-07 18:14 | 48.78825 | 44.34851 | 468 ft | 14 kts | 68° |
| 2026-05-07 18:15 | 48.78860 | 44.34988 | 469 ft | 14 kts | 69° |
| 2026-05-07 18:15 | 48.78889 | 44.35073 | 472 ft | 2 kts | 42° |
| 2026-05-07 18:15 | 48.78898 | 44.35079 | 472 ft | 1 kts | 7° |
| 2026-05-07 18:15 | 48.78925 | 44.35066 | 471 ft | 6 kts | 339° |
| 2026-05-07 18:16 | 48.78963 | 44.35044 | 471 ft | 4 kts | 339° |
| 2026-05-07 18:16 | 48.78968 | 44.35041 | 471 ft | 0 kts | 339° |